createdAt,value
2022-09-10T00:01:21.439Z,13.00
2022-09-10T00:03:49.817Z,13.00
2022-09-10T00:06:18.572Z,13.00
2022-09-10T00:08:46.458Z,12.90
2022-09-10T00:11:14.914Z,12.90
2022-09-10T00:13:42.673Z,12.90
2022-09-10T00:16:11.853Z,12.90
2022-09-10T00:18:39.550Z,12.90
2022-09-10T00:21:11.839Z,12.90
2022-09-10T00:23:39.036Z,12.90
2022-09-10T00:26:23.335Z,12.90
2022-09-10T00:28:51.327Z,12.90
2022-09-10T00:31:18.957Z,12.90
2022-09-10T00:33:46.166Z,12.90
2022-09-10T00:36:27.176Z,12.90
2022-09-10T00:38:55.635Z,12.90
2022-09-10T00:41:23.134Z,12.80
2022-09-10T00:43:51.402Z,12.80
2022-09-10T00:46:43.331Z,12.80
2022-09-10T00:49:17.707Z,12.80
2022-09-10T00:51:44.842Z,12.80
2022-09-10T00:54:11.966Z,12.70
2022-09-10T00:56:39.134Z,12.70
2022-09-10T00:59:08.098Z,12.70
2022-09-10T01:01:35.242Z,12.70
2022-09-10T01:04:04.026Z,12.60
2022-09-10T01:06:31.371Z,12.60
2022-09-10T01:08:58.895Z,12.60
2022-09-10T01:11:35.035Z,12.70
2022-09-10T01:14:30.294Z,12.60
2022-09-10T01:17:10.018Z,12.60
2022-09-10T01:19:41.114Z,12.60
2022-09-10T01:22:14.437Z,12.70
2022-09-10T01:25:17.414Z,12.70
2022-09-10T01:27:45.491Z,12.70
2022-09-10T01:30:15.275Z,12.70
2022-09-10T01:33:08.537Z,12.70
2022-09-10T01:35:44.900Z,12.70
2022-09-10T01:38:42.503Z,12.70
2022-09-10T01:41:10.397Z,12.80
2022-09-10T01:43:41.910Z,12.80
2022-09-10T01:46:43.274Z,12.80
2022-09-10T01:49:27.811Z,12.80
2022-09-10T01:52:35.441Z,12.80
2022-09-10T01:55:26.906Z,12.90
2022-09-10T01:58:11.836Z,12.90
2022-09-10T02:00:49.378Z,12.90
2022-09-10T02:03:19.587Z,12.90
2022-09-10T02:05:48.591Z,12.90
2022-09-10T02:08:20.154Z,12.90
2022-09-10T02:10:59.137Z,13.00
2022-09-10T02:13:29.686Z,13.00
2022-09-10T02:16:12.858Z,13.00
2022-09-10T02:18:44.558Z,13.00
2022-09-10T02:21:11.782Z,13.00
2022-09-10T02:23:51.070Z,13.00
2022-09-10T02:26:18.238Z,13.00
2022-09-10T02:28:45.469Z,12.90
2022-09-10T02:31:13.256Z,12.90
2022-09-10T02:33:40.467Z,13.00
2022-09-10T02:36:07.841Z,12.90
2022-09-10T02:38:35.205Z,13.00
2022-09-10T02:41:02.383Z,12.90
2022-09-10T02:43:29.630Z,12.90
2022-09-10T02:46:02.312Z,12.90
2022-09-10T02:48:30.806Z,12.90
2022-09-10T02:50:58.100Z,12.90
2022-09-10T02:53:27.470Z,12.90
2022-09-10T02:55:57.766Z,12.90
2022-09-10T02:58:24.922Z,12.90
2022-09-10T03:00:52.073Z,12.90
2022-09-10T03:03:19.206Z,12.90
2022-09-10T03:05:47.337Z,12.80
2022-09-10T03:08:14.459Z,12.80
2022-09-10T03:10:45.256Z,12.80
2022-09-10T03:13:12.587Z,12.80
2022-09-10T03:15:41.761Z,12.70
2022-09-10T03:18:09.187Z,12.80
2022-09-10T03:20:36.397Z,12.70
2022-09-10T03:23:03.514Z,12.70
2022-09-10T03:25:30.791Z,12.70
2022-09-10T03:27:58.263Z,12.70
2022-09-10T03:30:26.928Z,12.70
2022-09-10T03:32:54.631Z,12.70
2022-09-10T03:35:22.361Z,12.70
2022-09-10T03:37:49.529Z,12.70
2022-09-10T03:40:17.615Z,12.70
2022-09-10T03:42:45.911Z,12.70
2022-09-10T03:45:13.672Z,12.70
2022-09-10T03:47:41.000Z,12.60
2022-09-10T03:50:08.654Z,12.70
2022-09-10T03:52:36.702Z,12.70
2022-09-10T03:55:04.190Z,12.70
2022-09-10T03:57:31.522Z,12.70
2022-09-10T03:59:59.222Z,12.70
2022-09-10T04:02:26.398Z,12.80
2022-09-10T04:04:54.142Z,12.80
2022-09-10T04:07:21.256Z,12.80
2022-09-10T04:09:50.075Z,12.80
2022-09-10T04:12:17.758Z,12.80
2022-09-10T04:14:46.551Z,12.80
2022-09-10T04:17:15.209Z,12.90
2022-09-10T04:19:43.729Z,12.80
2022-09-10T04:22:11.485Z,12.90
2022-09-10T04:24:40.668Z,12.90
2022-09-10T04:27:07.906Z,12.90
2022-09-10T04:29:35.072Z,12.90
2022-09-10T04:32:03.223Z,12.90
2022-09-10T04:34:32.478Z,12.90
2022-09-10T04:36:59.817Z,12.90
2022-09-10T04:39:27.519Z,12.90
2022-09-10T04:41:54.745Z,12.90
2022-09-10T04:44:22.170Z,12.90
2022-09-10T04:46:49.349Z,12.90
2022-09-10T04:49:16.497Z,12.90
2022-09-10T04:51:43.762Z,12.90
2022-09-10T04:54:13.705Z,13.00
2022-09-10T04:56:41.550Z,13.00
2022-09-10T04:59:10.537Z,13.00
2022-09-10T05:01:37.709Z,13.00
2022-09-10T05:04:05.143Z,13.00
2022-09-10T05:06:35.520Z,13.00
2022-09-10T05:09:04.781Z,13.00
2022-09-10T05:11:32.930Z,13.10
2022-09-10T05:14:00.074Z,13.10
2022-09-10T05:16:29.606Z,13.10
2022-09-10T05:18:58.646Z,13.10
2022-09-10T05:21:27.235Z,13.10
2022-09-10T05:23:56.216Z,13.10
2022-09-10T05:26:24.566Z,13.10
2022-09-10T05:28:53.222Z,13.10
2022-09-10T05:31:21.598Z,13.20
2022-09-10T05:33:49.105Z,13.10
2022-09-10T05:36:16.374Z,13.20
2022-09-10T05:38:45.718Z,13.20
2022-09-10T05:41:13.466Z,13.20
2022-09-10T05:43:45.005Z,13.20
2022-09-10T05:46:12.904Z,13.20
2022-09-10T05:48:43.310Z,13.20
2022-09-10T05:51:12.145Z,13.30
2022-09-10T05:53:41.606Z,13.30
2022-09-10T05:56:09.124Z,13.30
2022-09-10T05:58:37.486Z,13.30
2022-09-10T06:01:06.617Z,13.30
2022-09-10T06:03:34.157Z,13.40
2022-09-10T06:06:02.545Z,13.40
2022-09-10T06:08:33.798Z,13.40
2022-09-10T06:11:06.603Z,13.50
2022-09-10T06:13:42.132Z,13.40
2022-09-10T06:16:09.478Z,13.50
2022-09-10T06:18:37.085Z,13.50
2022-09-10T06:21:07.611Z,13.50
2022-09-10T06:23:36.105Z,13.50
2022-09-10T06:26:08.867Z,13.40
2022-09-10T06:28:37.806Z,13.30
2022-09-10T06:31:06.572Z,13.20
2022-09-10T06:33:35.701Z,13.20
2022-09-10T06:36:04.262Z,13.10
2022-09-10T06:38:41.538Z,13.10
2022-09-10T06:41:13.484Z,13.10
2022-09-10T06:43:48.614Z,13.10
2022-09-10T06:52:28.400Z,13.00
2022-09-10T06:55:01.004Z,13.00
2022-09-10T06:57:37.729Z,13.00
2022-09-10T07:00:05.949Z,12.90
2022-09-10T07:02:39.836Z,12.90
2022-09-10T07:05:13.449Z,12.90
2022-09-10T07:07:42.513Z,12.80
2022-09-10T07:10:10.243Z,12.90
2022-09-10T07:12:39.268Z,12.90
2022-09-10T07:15:08.246Z,12.90
2022-09-10T07:17:36.146Z,12.90
2022-09-10T07:20:04.007Z,12.90
2022-09-10T07:22:43.691Z,12.90
2022-09-10T07:25:12.792Z,12.90
2022-09-10T07:28:17.800Z,13.00
2022-09-10T07:30:47.454Z,13.00
2022-09-10T07:33:16.157Z,13.10
2022-09-10T07:35:44.752Z,13.10
2022-09-10T07:38:14.003Z,13.10
2022-09-10T07:40:43.615Z,13.20
2022-09-10T07:43:11.159Z,13.20
2022-09-10T07:45:40.049Z,13.20
2022-09-10T07:48:07.271Z,13.30
2022-09-10T07:50:38.239Z,13.30
2022-09-10T07:53:05.539Z,13.30
2022-09-10T07:55:32.919Z,13.40
2022-09-10T07:58:01.293Z,13.30
2022-09-10T08:00:30.901Z,13.40
2022-09-10T08:03:03.058Z,13.40
2022-09-10T08:05:31.011Z,13.40
2022-09-10T08:08:01.040Z,13.40
2022-09-10T08:10:29.268Z,13.40
2022-09-10T08:12:58.836Z,13.40
2022-09-10T08:15:26.484Z,13.40
2022-09-10T08:23:20.415Z,13.40
2022-09-10T08:25:51.918Z,13.40
2022-09-10T08:28:22.433Z,13.40
2022-09-10T08:35:19.316Z,13.50
2022-09-10T08:37:47.608Z,13.50
2022-09-10T08:40:16.366Z,13.50
2022-09-10T08:42:49.268Z,13.60
2022-09-10T08:46:14.971Z,13.70
2022-09-10T08:48:43.153Z,13.80
2022-09-10T08:51:15.760Z,13.90
2022-09-10T08:53:49.393Z,14.00
2022-09-10T08:56:19.495Z,14.00
2022-09-10T08:59:12.344Z,14.10
2022-09-10T09:01:47.588Z,14.10
2022-09-10T09:04:42.038Z,14.20
2022-09-10T09:07:14.504Z,14.20
2022-09-10T09:09:43.994Z,14.30
2022-09-10T09:12:39.003Z,14.40
2022-09-10T09:15:09.318Z,14.50
2022-09-10T09:17:56.105Z,14.50
2022-09-10T09:20:44.649Z,14.60
2022-09-10T09:23:17.966Z,14.60
2022-09-10T09:25:50.841Z,14.60
2022-09-10T09:28:21.081Z,14.60
2022-09-10T09:30:49.540Z,14.70
2022-09-10T09:33:21.013Z,14.80
2022-09-10T09:35:59.114Z,14.80
2022-09-10T09:38:38.986Z,14.90
2022-09-10T09:41:15.331Z,14.90
2022-09-10T09:43:49.640Z,14.90
2022-09-10T09:46:18.980Z,15.00
2022-09-10T09:48:48.550Z,15.00
2022-09-10T09:51:20.849Z,14.90
2022-09-10T09:53:56.897Z,14.90
2022-09-10T09:56:39.129Z,15.00
2022-09-10T09:59:15.067Z,15.00
2022-09-10T10:01:42.689Z,15.00
2022-09-10T10:04:22.345Z,15.10
2022-09-10T10:06:59.961Z,15.10
2022-09-10T10:09:32.086Z,15.10
2022-09-10T10:12:05.763Z,15.00
2022-09-10T10:14:40.410Z,15.00
2022-09-10T10:17:30.461Z,14.90
2022-09-10T10:20:17.238Z,14.90
2022-09-10T10:22:45.399Z,14.90
2022-09-10T10:25:36.483Z,14.90
2022-09-10T10:28:04.179Z,15.00
2022-09-10T10:30:32.009Z,15.10
2022-09-10T10:33:00.019Z,15.10
2022-09-10T10:35:53.166Z,15.20
2022-09-10T10:38:27.971Z,15.30
2022-09-10T10:41:12.837Z,15.40
2022-09-10T10:44:14.101Z,15.50
2022-09-10T10:46:58.496Z,15.50
2022-09-10T10:49:49.197Z,15.70
2022-09-10T10:52:29.881Z,15.90
2022-09-10T10:55:18.616Z,16.00
2022-09-10T10:58:12.647Z,16.00
2022-09-10T11:00:46.141Z,16.00
2022-09-10T11:03:21.360Z,15.90
2022-09-10T11:05:51.360Z,15.90
2022-09-10T11:08:30.395Z,15.90
2022-09-10T11:11:01.433Z,15.90
2022-09-10T11:13:36.859Z,16.10
2022-09-10T11:16:09.914Z,16.20
2022-09-10T11:18:43.625Z,16.30
2022-09-10T11:21:20.081Z,16.40
2022-09-10T11:23:54.887Z,16.40
2022-09-10T11:26:43.610Z,16.40
2022-09-10T11:29:22.912Z,16.40
2022-09-10T11:32:15.886Z,16.60
2022-09-10T11:34:55.442Z,16.60
2022-09-10T11:37:31.920Z,16.60
2022-09-10T11:39:59.987Z,16.70
2022-09-10T11:42:37.923Z,16.70
2022-09-10T11:45:07.571Z,16.70
2022-09-10T11:47:43.090Z,16.70
2022-09-10T11:50:34.489Z,16.70
2022-09-10T11:53:02.181Z,16.60
2022-09-10T11:55:47.489Z,16.60
2022-09-10T11:58:20.550Z,16.50
2022-09-10T12:00:56.655Z,16.60
2022-09-10T12:03:52.559Z,16.80
2022-09-10T12:06:26.582Z,17.00
2022-09-10T12:09:14.415Z,17.00
2022-09-10T12:12:10.135Z,17.10
2022-09-10T12:14:38.870Z,17.10
2022-09-10T12:17:16.652Z,17.00
2022-09-10T12:19:46.183Z,16.90
2022-09-10T12:22:21.785Z,16.90
2022-09-10T12:25:22.801Z,16.90
2022-09-10T12:27:58.342Z,17.00
2022-09-10T12:30:27.372Z,17.10
2022-09-10T12:32:55.427Z,17.10
2022-09-10T12:35:32.586Z,17.10
2022-09-10T12:38:37.538Z,17.10
2022-09-10T12:41:04.803Z,17.00
2022-09-10T12:43:41.552Z,17.00
2022-09-10T12:46:08.829Z,17.20
2022-09-10T12:48:50.882Z,17.20
2022-09-10T12:51:17.983Z,17.30
2022-09-10T12:54:03.395Z,17.40
2022-09-10T12:56:57.746Z,17.50
2022-09-10T12:59:33.772Z,17.50
2022-09-10T13:02:00.973Z,17.60
2022-09-10T13:04:35.628Z,17.60
2022-09-10T13:07:05.516Z,17.50
2022-09-10T13:09:35.585Z,17.40
2022-09-10T13:12:05.596Z,17.30
2022-09-10T13:14:39.464Z,17.20
2022-09-10T13:17:06.688Z,17.20
2022-09-10T13:19:42.910Z,17.20
2022-09-10T13:22:30.046Z,17.10
2022-09-10T13:24:59.931Z,17.00
2022-09-10T13:27:38.462Z,17.00
2022-09-10T13:30:18.622Z,17.20
2022-09-10T13:32:48.261Z,17.30
2022-09-10T13:35:21.466Z,17.30
2022-09-10T13:38:24.530Z,17.40
2022-09-10T13:41:19.737Z,17.40
2022-09-10T13:44:10.827Z,17.40
2022-09-10T13:46:41.648Z,17.20
2022-09-10T13:49:19.615Z,17.10
2022-09-10T13:51:51.699Z,17.00
2022-09-10T13:54:35.016Z,17.10
2022-09-10T13:57:13.144Z,17.20
2022-09-10T13:59:41.079Z,17.30
2022-09-10T14:02:08.307Z,17.30
2022-09-10T14:04:36.972Z,17.30
2022-09-10T14:07:13.204Z,17.30
2022-09-10T14:09:48.463Z,17.40
2022-09-10T14:12:16.196Z,17.40
2022-09-10T14:14:48.512Z,17.30
2022-09-10T14:17:25.718Z,17.30
2022-09-10T14:19:59.154Z,17.40
2022-09-10T14:22:26.416Z,17.50
2022-09-10T14:25:01.434Z,17.60
2022-09-10T14:27:33.151Z,17.80
2022-09-10T14:30:24.534Z,17.90
2022-09-10T14:32:52.149Z,18.00
2022-09-10T14:35:39.084Z,17.90
2022-09-10T14:38:29.298Z,17.90
2022-09-10T14:41:04.312Z,17.90
2022-09-10T14:43:35.509Z,17.80
2022-09-10T14:46:03.175Z,17.80
2022-09-10T14:49:01.314Z,17.80
2022-09-10T14:51:28.487Z,17.80
2022-09-10T14:53:56.670Z,17.70
2022-09-10T14:56:36.187Z,17.60
2022-09-10T14:59:15.617Z,17.50
2022-09-10T15:01:48.050Z,17.40
2022-09-10T15:04:16.475Z,17.40
2022-09-10T15:06:43.925Z,17.40
2022-09-10T15:09:12.919Z,17.40
2022-09-10T15:11:51.965Z,17.30
2022-09-10T15:14:19.103Z,17.20
2022-09-10T15:16:46.481Z,17.20
2022-09-10T15:19:14.418Z,17.10
2022-09-10T15:21:41.590Z,17.00
2022-09-10T15:24:14.044Z,17.00
2022-09-10T15:26:42.450Z,16.90
2022-09-10T15:29:09.894Z,16.90
2022-09-10T15:31:37.472Z,16.80
2022-09-10T15:34:06.390Z,16.70
2022-09-10T15:36:37.017Z,16.40
2022-09-10T15:39:05.010Z,16.00
2022-09-10T15:41:32.164Z,15.80
2022-09-10T15:43:59.319Z,15.60
2022-09-10T15:46:26.572Z,15.50
2022-09-10T15:48:54.054Z,15.30
2022-09-10T15:51:22.898Z,15.30
2022-09-10T15:53:51.155Z,15.20
2022-09-10T15:56:19.128Z,15.20
2022-09-10T15:58:51.309Z,15.10
2022-09-10T16:01:18.655Z,15.00
2022-09-10T16:03:51.524Z,15.00
2022-09-10T16:06:19.437Z,14.90
2022-09-10T16:08:56.923Z,14.80
2022-09-10T16:11:24.603Z,14.70
2022-09-10T16:13:51.755Z,14.70
2022-09-10T16:16:20.574Z,14.60
2022-09-10T16:18:48.038Z,14.60
2022-09-10T16:21:18.467Z,14.50
2022-09-10T16:23:46.604Z,14.50
2022-09-10T16:26:19.908Z,14.40
2022-09-10T16:28:54.016Z,14.40
2022-09-10T16:31:30.113Z,14.30
2022-09-10T16:33:58.851Z,14.30
2022-09-10T16:36:26.527Z,14.20
2022-09-10T16:38:54.895Z,14.20
2022-09-10T16:41:23.001Z,14.10
2022-09-10T16:43:50.392Z,14.10
2022-09-10T16:46:17.644Z,14.10
2022-09-10T16:48:45.119Z,14.10
2022-09-10T16:51:16.715Z,14.10
2022-09-10T16:53:47.278Z,14.10
2022-09-10T16:56:15.739Z,14.20
2022-09-10T16:58:46.822Z,14.20
2022-09-10T17:01:14.351Z,14.20
2022-09-10T17:03:46.053Z,14.20
2022-09-10T17:06:26.646Z,14.20
2022-09-10T17:08:55.127Z,14.20
2022-09-10T17:11:22.734Z,14.20
2022-09-10T17:13:50.795Z,14.20
2022-09-10T17:16:21.004Z,14.10
2022-09-10T17:18:54.258Z,14.20
2022-09-10T17:21:21.499Z,14.20
2022-09-10T17:23:48.751Z,14.10
2022-09-10T17:26:16.080Z,14.10
2022-09-10T17:28:43.209Z,14.10
2022-09-10T17:31:10.367Z,14.10
2022-09-10T17:33:39.106Z,14.10
2022-09-10T17:36:06.493Z,14.00
2022-09-10T17:38:34.144Z,14.00
2022-09-10T17:41:02.946Z,14.00
2022-09-10T17:43:33.822Z,14.00
2022-09-10T17:46:07.957Z,14.00
2022-09-10T17:48:35.756Z,14.00
2022-09-10T17:51:03.035Z,14.00
2022-09-10T17:53:30.464Z,14.00
2022-09-10T17:56:08.526Z,14.00
2022-09-10T17:58:35.722Z,14.00
2022-09-10T18:01:08.702Z,14.00
2022-09-10T18:03:35.942Z,14.00
2022-09-10T18:06:04.622Z,13.90
2022-09-10T18:08:32.737Z,13.90
2022-09-10T18:11:13.888Z,13.90
2022-09-10T18:13:41.135Z,13.90
2022-09-10T18:16:10.022Z,13.90
2022-09-10T18:18:37.730Z,13.90
2022-09-10T18:21:21.358Z,13.90
2022-09-10T18:24:18.944Z,13.90
2022-09-10T18:26:47.075Z,13.90
2022-09-10T18:29:21.843Z,13.90
2022-09-10T18:31:53.650Z,13.90
2022-09-10T18:34:23.793Z,13.90
2022-09-10T18:36:54.158Z,13.90
2022-09-10T18:39:21.900Z,13.90
2022-09-10T18:41:49.042Z,13.80
2022-09-10T18:44:18.442Z,13.80
2022-09-10T18:46:45.763Z,13.70
2022-09-10T18:49:16.735Z,13.70
2022-09-10T18:51:46.363Z,13.70
2022-09-10T18:54:14.731Z,13.70
2022-09-10T18:56:41.968Z,13.70
2022-09-10T18:59:15.000Z,13.70
2022-09-10T19:01:43.542Z,13.70
2022-09-10T19:04:14.812Z,13.70
2022-09-10T19:06:43.361Z,13.60
2022-09-10T19:09:12.113Z,13.70
2022-09-10T19:11:41.269Z,13.70
2022-09-10T19:14:13.995Z,13.70
2022-09-10T19:16:41.345Z,13.70
2022-09-10T19:19:10.339Z,13.70
2022-09-10T19:21:38.479Z,13.70
2022-09-10T19:24:06.732Z,13.60
2022-09-10T19:26:34.430Z,13.60
2022-09-10T19:29:02.196Z,13.60
2022-09-10T19:31:31.054Z,13.60
2022-09-10T19:34:03.068Z,13.60
2022-09-10T19:36:31.615Z,13.70
2022-09-10T19:38:59.639Z,13.70
2022-09-10T19:49:25.519Z,13.70
2022-09-10T19:56:38.601Z,13.60
2022-09-10T19:59:20.082Z,13.60
2022-09-10T20:01:57.751Z,13.60
2022-09-10T20:04:28.201Z,13.60
2022-09-10T20:06:55.735Z,13.60
2022-09-10T20:09:23.223Z,13.50
2022-09-10T20:11:50.602Z,13.60
2022-09-10T20:14:23.886Z,13.60
2022-09-10T20:16:51.309Z,13.50
2022-09-10T20:19:18.706Z,13.50
2022-09-10T20:21:47.545Z,13.50
2022-09-10T20:24:15.198Z,13.50
2022-09-10T20:26:46.450Z,13.50
2022-09-10T20:29:15.272Z,13.50
2022-09-10T20:31:45.174Z,13.40
2022-09-10T20:34:14.602Z,13.40
2022-09-10T20:36:45.032Z,13.40
2022-09-10T20:39:13.729Z,13.40
2022-09-10T20:41:43.718Z,13.40
2022-09-10T20:44:17.657Z,13.40
2022-09-10T20:46:44.952Z,13.30
2022-09-10T20:49:13.051Z,13.30
2022-09-10T20:51:40.551Z,13.30
2022-09-10T20:54:12.887Z,13.30
2022-09-10T20:56:40.654Z,13.40
2022-09-10T20:59:07.993Z,13.40
2022-09-10T21:01:35.303Z,13.40
2022-09-10T21:04:03.967Z,13.40
2022-09-10T21:11:04.428Z,13.40
2022-09-10T21:13:07.091Z,13.40
2022-09-10T21:13:35.157Z,13.50
2022-09-10T21:16:15.253Z,13.50
2022-09-10T21:18:48.772Z,13.50
2022-09-10T21:21:20.858Z,13.50
2022-09-10T21:23:49.866Z,13.50
2022-09-10T21:26:18.680Z,13.50
2022-09-10T21:28:45.914Z,13.50
2022-09-10T21:31:15.036Z,13.50
2022-09-10T21:33:43.879Z,13.50
2022-09-10T21:36:15.176Z,13.50
2022-09-10T21:38:46.554Z,13.50
2022-09-10T21:41:15.109Z,13.50
2022-09-10T21:43:43.695Z,13.50
2022-09-10T21:46:11.015Z,13.50
2022-09-10T21:48:41.170Z,13.50
2022-09-10T21:51:13.290Z,13.50
2022-09-10T21:53:41.035Z,13.50
2022-09-10T21:56:08.351Z,13.50
2022-09-10T21:58:36.328Z,13.50
2022-09-10T22:01:09.546Z,13.50
2022-09-10T22:03:36.790Z,13.50
2022-09-10T22:06:24.890Z,13.50
2022-09-10T22:09:00.233Z,13.50
2022-09-10T22:11:32.186Z,13.50
2022-09-10T22:14:01.347Z,13.50
2022-09-10T22:16:29.335Z,13.50
2022-09-10T22:18:56.901Z,13.50
2022-09-10T22:21:24.787Z,13.50
2022-09-10T22:23:52.071Z,13.50
2022-09-10T22:26:21.333Z,13.50
2022-09-10T22:28:54.156Z,13.50
2022-09-10T22:31:23.218Z,13.50
2022-09-10T22:34:01.373Z,13.50
2022-09-10T22:36:31.535Z,13.50
2022-09-10T22:39:25.889Z,13.50
2022-09-10T22:41:53.207Z,13.50
2022-09-10T22:44:20.628Z,13.50
2022-09-10T22:46:47.945Z,13.50
2022-09-10T22:49:18.377Z,13.50
2022-09-10T22:51:45.783Z,13.40
2022-09-10T22:54:13.024Z,13.40
2022-09-10T22:56:40.462Z,13.40
2022-09-10T22:59:09.862Z,13.40
2022-09-10T23:01:37.577Z,13.40
2022-09-10T23:04:06.087Z,13.40
2022-09-10T23:06:34.215Z,13.40
2022-09-10T23:09:06.608Z,13.30
2022-09-10T23:11:34.382Z,13.40
2022-09-10T23:14:06.466Z,13.30
2022-09-10T23:16:35.412Z,13.40
2022-09-10T23:19:04.248Z,13.30
2022-09-10T23:21:32.598Z,13.30
2022-09-10T23:24:01.305Z,13.30
2022-09-10T23:26:28.892Z,13.40
2022-09-10T23:28:56.326Z,13.40
2022-09-10T23:31:25.237Z,13.40
2022-09-10T23:33:59.789Z,13.40
2022-09-10T23:36:27.975Z,13.30
2022-09-10T23:38:55.115Z,13.30
2022-09-10T23:41:22.226Z,13.30
2022-09-10T23:43:49.367Z,13.30
2022-09-10T23:46:16.527Z,13.30
2022-09-10T23:48:43.894Z,13.30
2022-09-10T23:51:13.546Z,13.30
2022-09-10T23:53:40.915Z,13.30
2022-09-10T23:56:08.482Z,13.30
2022-09-10T23:58:35.619Z,13.30
